Time;durP1;ratioP1;P1;durP2;ratioP2;P2;SDS_P1;SDS_P2;PMS_P1;PMS_P2;Temp;Humidity;BMP_temperature;BMP_pressure;BME280_temperature;BME280_humidity;BME280_pressure;Samples;Min_cycle;Max_cycle;Signal;HPM_P1;HPM_P2
2024/01/15 00:00:05;;;;;;;13.60;2.30;;;2.60;99.90;;;;;;5094953;28;20036;-69
2024/01/15 00:02:31;;;;;;;12.98;1.75;;;2.60;99.90;;;;;;5094875;28;20040;-69
2024/01/15 00:04:57;;;;;;;15.20;2.03;;;2.60;99.90;;;;;;5093812;28;20051;-69
2024/01/15 00:07:22;;;;;;;12.23;2.22;;;2.60;99.90;;;;;;5094623;28;20044;-69
2024/01/15 00:09:48;;;;;;;16.30;2.07;;;2.70;99.90;;;;;;5076862;28;20390;-69
2024/01/15 00:12:14;;;;;;;11.40;2.10;;;2.70;99.90;;;;;;5092944;28;20094;-69
2024/01/15 00:14:39;;;;;;;14.13;2.03;;;2.70;99.90;;;;;;5093005;28;20478;-69
2024/01/15 00:17:05;;;;;;;14.63;2.20;;;2.80;99.90;;;;;;5092147;28;20036;-69
2024/01/15 00:19:32;;;;;;;18.10;2.67;;;2.80;99.90;;;;;;5092391;28;20040;-69
2024/01/15 00:21:58;;;;;;;17.23;2.63;;;2.80;99.90;;;;;;5091245;28;20490;-69
2024/01/15 00:24:24;;;;;;;12.77;2.20;;;2.80;99.90;;;;;;5092194;28;20044;-69
2024/01/15 00:26:50;;;;;;;17.07;3.30;;;2.80;99.90;;;;;;5092390;28;20056;-69
2024/01/15 00:29:16;;;;;;;16.33;2.43;;;2.90;99.90;;;;;;5093185;28;20274;-69
2024/01/15 00:31:42;;;;;;;16.17;2.43;;;2.90;99.90;;;;;;5094528;28;20543;-69
2024/01/15 00:34:07;;;;;;;16.33;2.33;;;2.90;99.90;;;;;;5094138;28;20048;-70
2024/01/15 00:36:33;;;;;;;20.10;2.83;;;2.90;99.90;;;;;;5094437;28;20047;-69
2024/01/15 00:38:59;;;;;;;23.00;3.33;;;2.90;99.90;;;;;;5094234;28;20043;-69
2024/01/15 00:41:24;;;;;;;18.57;2.77;;;2.90;99.90;;;;;;5093980;28;20131;-69
2024/01/15 00:43:50;;;;;;;18.57;2.70;;;2.90;99.90;;;;;;5092843;28;20109;-70
2024/01/15 00:46:16;;;;;;;18.20;2.27;;;2.90;99.90;;;;;;5092658;28;20054;-69
2024/01/15 00:48:41;;;;;;;16.13;3.10;;;2.90;99.90;;;;;;5094026;28;20040;-69
2024/01/15 00:51:07;;;;;;;14.00;1.93;;;2.90;99.90;;;;;;5093781;28;20048;-69
2024/01/15 00:53:33;;;;;;;7.47;1.67;;;2.90;99.90;;;;;;5093408;28;20063;-69
2024/01/15 00:55:59;;;;;;;8.03;2.00;;;2.90;99.90;;;;;;5093859;28;20288;-69
2024/01/15 00:58:26;;;;;;;11.20;1.98;;;2.70;99.90;;;;;;5093557;28;20123;-69
2024/01/15 01:00:51;;;;;;;15.13;1.90;;;2.70;99.90;;;;;;5093497;28;20417;-69
2024/01/15 01:03:17;;;;;;;11.00;2.00;;;2.70;99.90;;;;;;5093575;28;20040;-69
2024/01/15 01:05:44;;;;;;;5.27;1.10;;;2.60;99.90;;;;;;5094004;28;20051;-69
2024/01/15 01:08:10;;;;;;;9.23;1.52;;;2.60;99.90;;;;;;5092572;28;20079;-69
2024/01/15 01:10:36;;;;;;;8.73;2.03;;;2.50;99.90;;;;;;5092297;28;20481;-69
2024/01/15 01:13:01;;;;;;;12.20;1.87;;;2.50;99.90;;;;;;5092353;28;20127;-69
2024/01/15 01:15:27;;;;;;;8.17;1.30;;;2.50;99.90;;;;;;5093331;28;20439;-69
2024/01/15 01:17:53;;;;;;;6.50;1.13;;;2.50;99.90;;;;;;5092405;28;20552;-69
2024/01/15 01:20:18;;;;;;;10.83;1.30;;;2.50;99.90;;;;;;5093361;28;20479;-69
2024/01/15 01:22:44;;;;;;;11.00;1.60;;;2.50;99.90;;;;;;5093142;28;20044;-69
2024/01/15 01:25:10;;;;;;;10.77;1.40;;;2.50;99.90;;;;;;5093035;28;20083;-69
2024/01/15 01:27:36;;;;;;;9.13;1.60;;;2.50;99.90;;;;;;5093281;28;20052;-69
2024/01/15 01:30:02;;;;;;;10.77;1.60;;;2.50;99.90;;;;;;5093420;28;20085;-69
2024/01/15 01:32:28;;;;;;;10.52;1.60;;;2.50;99.90;;;;;;5093201;28;20051;-70
2024/01/15 01:34:54;;;;;;;12.87;2.10;;;2.60;99.90;;;;;;5093407;28;20374;-69
2024/01/15 01:37:19;;;;;;;11.53;1.60;;;2.60;99.90;;;;;;5093135;28;20047;-69
2024/01/15 01:39:45;;;;;;;14.87;1.97;;;2.60;99.90;;;;;;5093468;28;20348;-69
2024/01/15 01:42:12;;;;;;;15.97;2.53;;;2.60;99.90;;;;;;5093314;28;20055;-69
2024/01/15 01:44:38;;;;;;;17.58;2.20;;;2.60;99.90;;;;;;5093080;28;20087;-70
2024/01/15 01:47:05;;;;;;;23.60;2.95;;;2.50;99.90;;;;;;5093247;28;20059;-69
2024/01/15 01:49:31;;;;;;;15.85;2.35;;;2.50;99.90;;;;;;5093043;28;20040;-69
2024/01/15 01:51:59;;;;;;;22.90;3.60;;;2.50;99.90;;;;;;5092277;28;20055;-69
2024/01/15 01:54:28;;;;;;;23.85;2.90;;;2.50;99.90;;;;;;5091619;28;20092;-70
2024/01/15 01:56:55;;;;;;;17.00;4.25;;;2.50;99.90;;;;;;5093412;28;20432;-70
2024/01/15 01:59:23;;;;;;;19.55;3.50;;;2.50;99.90;;;;;;5092866;28;20039;-70
2024/01/15 02:01:50;;;;;;;18.73;2.65;;;2.50;99.90;;;;;;5093328;28;20405;-69
2024/01/15 02:04:17;;;;;;;26.52;3.33;;;2.50;99.90;;;;;;5093123;28;20048;-70
2024/01/15 02:06:42;;;;;;;18.05;2.33;;;2.50;99.90;;;;;;5092844;28;20048;-70
2024/01/15 02:09:09;;;;;;;19.17;2.50;;;2.50;99.90;;;;;;5093145;28;20048;-70
2024/01/15 02:11:36;;;;;;;18.67;2.80;;;2.60;99.90;;;;;;5091763;28;20044;-70
2024/01/15 02:14:03;;;;;;;20.15;2.90;;;2.50;99.90;;;;;;5090871;28;20448;-70
2024/01/15 02:16:28;;;;;;;18.15;3.00;;;2.50;99.90;;;;;;5090674;28;20059;-69
2024/01/15 02:18:54;;;;;;;23.80;4.17;;;2.60;99.90;;;;;;5090963;28;20123;-69
2024/01/15 02:21:20;;;;;;;16.93;2.70;;;2.60;99.90;;;;;;5091155;28;20415;-69
2024/01/15 02:23:45;;;;;;;24.17;2.97;;;2.70;99.90;;;;;;5089879;28;20048;-69
2024/01/15 02:26:12;;;;;;;22.23;2.80;;;2.70;99.90;;;;;;5091127;28;20059;-69
2024/01/15 02:28:38;;;;;;;26.08;3.70;;;2.70;99.90;;;;;;5091034;28;20123;-69
2024/01/15 02:31:03;;;;;;;24.83;3.90;;;2.80;99.90;;;;;;5092840;28;20054;-69
2024/01/15 02:33:29;;;;;;;19.77;3.17;;;2.80;99.90;;;;;;5092332;28;20127;-69
2024/01/15 02:35:55;;;;;;;25.97;3.53;;;2.80;99.90;;;;;;5093549;28;20051;-69
2024/01/15 02:38:20;;;;;;;33.07;4.17;;;2.80;99.90;;;;;;5095338;28;20044;-69
2024/01/15 02:40:47;;;;;;;32.60;4.20;;;2.80;99.90;;;;;;5096259;28;20093;-69
2024/01/15 02:43:13;;;;;;;26.30;3.50;;;2.80;99.90;;;;;;5096550;28;20044;-69
2024/01/15 02:45:39;;;;;;;23.42;3.65;;;2.70;99.90;;;;;;5096299;28;20417;-69
2024/01/15 02:48:05;;;;;;;23.40;3.20;;;2.60;99.90;;;;;;5096312;28;20040;-69
2024/01/15 02:50:31;;;;;;;26.10;3.67;;;2.60;99.90;;;;;;5096134;28;20087;-69
2024/01/15 02:52:57;;;;;;;19.30;3.50;;;2.60;99.90;;;;;;5095890;28;20106;-69
2024/01/15 02:55:22;;;;;;;21.67;3.13;;;2.60;99.90;;;;;;5096489;28;20489;-69
2024/01/15 02:57:48;;;;;;;21.37;3.07;;;2.60;99.90;;;;;;5095939;28;20470;-69
2024/01/15 03:00:14;;;;;;;19.17;2.87;;;2.60;99.90;;;;;;5095975;28;20044;-69
2024/01/15 03:02:43;;;;;;;19.02;2.92;;;2.60;99.90;;;;;;5095631;28;20055;-69
2024/01/15 03:05:12;;;;;;;21.30;2.80;;;2.70;99.90;;;;;;5096121;28;20402;-69
2024/01/15 03:07:38;;;;;;;22.35;4.07;;;2.80;99.90;;;;;;5095912;28;20056;-69
2024/01/15 03:10:05;;;;;;;14.57;2.30;;;2.80;99.90;;;;;;5094727;28;20098;-69
2024/01/15 03:12:31;;;;;;;11.82;2.70;;;2.80;99.90;;;;;;5095734;28;20083;-69
2024/01/15 03:14:57;;;;;;;13.63;1.90;;;2.80;99.90;;;;;;5095854;28;20083;-69
2024/01/15 03:17:23;;;;;;;15.40;1.60;;;2.80;99.90;;;;;;5095746;28;20286;-69
2024/01/15 03:19:49;;;;;;;14.80;2.00;;;2.80;99.90;;;;;;5095488;28;20072;-69
2024/01/15 03:22:16;;;;;;;15.65;2.03;;;2.80;99.90;;;;;;5095802;28;20126;-69
2024/01/15 03:24:42;;;;;;;14.82;2.05;;;2.80;99.90;;;;;;5094534;28;20401;-69
2024/01/15 03:27:07;;;;;;;14.75;2.40;;;2.80;99.90;;;;;;5095563;28;20051;-69
2024/01/15 03:29:33;;;;;;;14.50;2.17;;;2.80;99.90;;;;;;5095386;28;20044;-69
2024/01/15 03:31:59;;;;;;;16.77;2.67;;;2.70;99.90;;;;;;5095490;28;20047;-69
2024/01/15 03:34:25;;;;;;;17.07;2.73;;;2.70;99.90;;;;;;5095532;28;20040;-69
2024/01/15 03:36:50;;;;;;;20.43;2.80;;;2.70;99.90;;;;;;5095233;28;20048;-69
2024/01/15 03:39:16;;;;;;;23.30;3.47;;;2.70;99.90;;;;;;5095257;28;20397;-69
2024/01/15 03:41:42;;;;;;;19.17;3.07;;;2.70;99.90;;;;;;5095147;28;20542;-69
2024/01/15 03:44:07;;;;;;;29.33;3.40;;;2.80;99.90;;;;;;5095518;28;20047;-69
2024/01/15 03:46:33;;;;;;;22.23;2.90;;;2.80;99.90;;;;;;5094499;28;20134;-69
2024/01/15 03:48:59;;;;;;;19.33;4.00;;;2.80;99.90;;;;;;5095163;28;20044;-69
2024/01/15 03:51:25;;;;;;;22.37;3.10;;;2.80;99.90;;;;;;5094197;28;20052;-69
2024/01/15 03:53:51;;;;;;;18.33;2.53;;;2.90;99.90;;;;;;5094823;28;20156;-69
2024/01/15 03:56:17;;;;;;;14.73;2.57;;;2.90;99.90;;;;;;5095021;28;20485;-69
2024/01/15 03:58:42;;;;;;;16.50;2.55;;;2.90;99.90;;;;;;5094725;28;20073;-69
2024/01/15 04:01:09;;;;;;;11.80;2.83;;;2.90;99.90;;;;;;5095105;28;20040;-69
2024/01/15 04:03:35;;;;;;;13.68;2.08;;;2.90;99.90;;;;;;5094745;28;20055;-69
2024/01/15 04:06:01;;;;;;;11.87;2.00;;;3.00;99.90;;;;;;5094535;28;20040;-69
2024/01/15 04:08:27;;;;;;;9.93;1.63;;;2.90;99.90;;;;;;5094921;28;20088;-69
2024/01/15 04:10:52;;;;;;;6.67;1.20;;;2.90;99.90;;;;;;5094543;28;20390;-69
2024/01/15 04:13:18;;;;;;;10.90;1.87;;;2.90;99.90;;;;;;5094966;28;20052;-69
2024/01/15 04:15:44;;;;;;;9.13;1.37;;;2.90;99.90;;;;;;5093368;28;20044;-69
2024/01/15 04:18:09;;;;;;;8.00;1.20;;;2.90;99.90;;;;;;5094864;28;20043;-69
2024/01/15 04:20:35;;;;;;;11.17;1.40;;;2.90;99.90;;;;;;5094645;28;20129;-69
2024/01/15 04:23:01;;;;;;;9.00;1.40;;;2.80;99.90;;;;;;5094650;28;20059;-69
2024/01/15 04:25:27;;;;;;;9.73;1.50;;;2.70;99.90;;;;;;5094571;28;20477;-69
2024/01/15 04:27:52;;;;;;;6.93;1.20;;;2.70;99.90;;;;;;5094295;28;20626;-69
2024/01/15 04:30:18;;;;;;;8.27;1.87;;;2.60;99.90;;;;;;5093432;28;20044;-69
2024/01/15 04:32:44;;;;;;;9.27;1.80;;;2.60;99.90;;;;;;5094266;28;20105;-69
2024/01/15 04:35:09;;;;;;;8.73;1.90;;;2.60;99.90;;;;;;5094274;28;20052;-69
2024/01/15 04:37:35;;;;;;;10.33;1.63;;;2.60;99.90;;;;;;5094238;28;20048;-69
2024/01/15 04:40:03;;;;;;;10.60;1.50;;;2.50;99.90;;;;;;5094016;28;20036;-69
2024/01/15 04:42:29;;;;;;;8.70;1.67;;;2.50;99.90;;;;;;5094166;28;20052;-69
2024/01/15 04:44:55;;;;;;;9.47;1.50;;;2.40;99.90;;;;;;5093994;28;20044;-69
2024/01/15 04:47:20;;;;;;;12.27;1.50;;;2.40;99.90;;;;;;5094049;28;20129;-69
2024/01/15 04:49:46;;;;;;;9.70;1.23;;;2.40;99.90;;;;;;5093884;28;20076;-69
2024/01/15 04:52:12;;;;;;;11.07;2.00;;;2.40;99.90;;;;;;5093245;28;20478;-69
2024/01/15 04:54:38;;;;;;;9.10;1.40;;;2.40;99.90;;;;;;5094051;28;20051;-69
2024/01/15 04:57:04;;;;;;;7.50;1.63;;;2.40;99.90;;;;;;5093718;28;20113;-69
2024/01/15 04:59:29;;;;;;;10.17;1.60;;;2.50;99.90;;;;;;5093050;28;20094;-69
2024/01/15 05:01:56;;;;;;;10.57;1.50;;;2.40;99.90;;;;;;5093627;28;20055;-69
2024/01/15 05:04:22;;;;;;;10.75;1.83;;;2.40;99.90;;;;;;5093718;28;20108;-69
2024/01/15 05:06:48;;;;;;;8.67;1.70;;;2.40;99.90;;;;;;5093502;28;20040;-69
2024/01/15 05:09:13;;;;;;;14.83;1.90;;;2.30;99.90;;;;;;5093754;28;20393;-70
2024/01/15 05:11:39;;;;;;;15.50;1.90;;;2.30;99.90;;;;;;5093937;28;20194;-69
2024/01/15 05:14:05;;;;;;;15.50;2.53;;;2.20;99.90;;;;;;5093349;28;20138;-69
2024/01/15 05:16:31;;;;;;;12.63;2.10;;;2.20;99.90;;;;;;5093598;28;20523;-70
2024/01/15 05:18:57;;;;;;;12.87;1.67;;;2.20;99.90;;;;;;5093212;28;20040;-70
2024/01/15 05:21:22;;;;;;;19.33;2.00;;;2.10;99.90;;;;;;5092054;28;20147;-70
2024/01/15 05:23:48;;;;;;;15.63;2.07;;;2.10;99.90;;;;;;5093197;28;20044;-70
2024/01/15 05:26:14;;;;;;;25.00;2.30;;;2.10;99.90;;;;;;5093137;28;20040;-70
2024/01/15 05:28:42;;;;;;;17.10;2.63;;;2.10;99.90;;;;;;5093316;28;20044;-69
2024/01/15 05:31:08;;;;;;;15.75;2.85;;;2.10;99.90;;;;;;5093140;28;20051;-70
2024/01/15 05:33:34;;;;;;;14.43;2.92;;;2.10;99.90;;;;;;5093537;28;20101;-70
2024/01/15 05:36:00;;;;;;;17.60;3.23;;;2.10;99.90;;;;;;5093121;28;20534;-70
2024/01/15 05:38:26;;;;;;;19.57;2.57;;;2.10;99.90;;;;;;5093205;28;20051;-69
2024/01/15 05:40:51;;;;;;;21.80;2.47;;;2.10;99.90;;;;;;5092018;28;20056;-70
2024/01/15 05:43:17;;;;;;;13.27;2.50;;;2.10;99.90;;;;;;5093177;28;20551;-70
2024/01/15 05:45:44;;;;;;;19.10;2.60;;;2.10;99.90;;;;;;5093501;28;20052;-70
2024/01/15 05:48:10;;;;;;;21.33;3.53;;;2.10;99.90;;;;;;5091804;28;20131;-70
2024/01/15 05:50:36;;;;;;;21.97;2.80;;;2.00;99.90;;;;;;5093205;28;20126;-69
2024/01/15 05:53:02;;;;;;;15.30;3.07;;;2.10;99.90;;;;;;5092803;28;20059;-70
2024/01/15 05:55:28;;;;;;;18.45;2.88;;;2.00;99.90;;;;;;5092920;28;20131;-69
2024/01/15 05:57:53;;;;;;;22.13;2.83;;;2.00;99.90;;;;;;5092858;28;20143;-70
2024/01/15 06:00:19;;;;;;;18.07;2.67;;;2.00;99.90;;;;;;5093096;28;20077;-70
2024/01/15 06:02:45;;;;;;;27.27;3.20;;;2.00;99.90;;;;;;5093019;28;20059;-69
2024/01/15 06:05:11;;;;;;;23.10;3.13;;;2.00;99.90;;;;;;5092936;28;20052;-70
2024/01/15 06:07:36;;;;;;;26.07;3.03;;;1.90;99.90;;;;;;5093069;28;20469;-70
2024/01/15 06:10:04;;;;;;;21.73;3.23;;;1.90;99.90;;;;;;5093529;28;20173;-70
2024/01/15 06:12:30;;;;;;;22.27;3.28;;;1.90;99.90;;;;;;5097002;28;20058;-70
2024/01/15 06:14:56;;;;;;;22.58;4.45;;;1.90;99.90;;;;;;5097082;28;20044;-70
2024/01/15 06:17:22;;;;;;;27.07;3.83;;;1.90;99.90;;;;;;5097161;28;20056;-70
2024/01/15 06:19:48;;;;;;;20.70;2.47;;;1.90;99.90;;;;;;5096774;28;20036;-70
2024/01/15 06:22:14;;;;;;;16.67;3.30;;;2.10;99.90;;;;;;5096645;28;20044;-70
2024/01/15 06:24:39;;;;;;;29.03;4.53;;;2.10;99.90;;;;;;5096838;28;20135;-70
2024/01/15 06:27:05;;;;;;;27.43;4.17;;;2.10;99.90;;;;;;5096662;28;20052;-70
2024/01/15 06:29:31;;;;;;;18.40;3.47;;;2.20;99.90;;;;;;5096698;28;20040;-70
2024/01/15 06:31:57;;;;;;;22.05;3.70;;;2.20;99.90;;;;;;5096198;28;20477;-70
2024/01/15 06:34:23;;;;;;;18.30;2.73;;;2.20;99.90;;;;;;5096797;28;20052;-70
2024/01/15 06:36:48;;;;;;;19.87;2.47;;;2.20;99.90;;;;;;5095517;28;20490;-70
2024/01/15 06:39:14;;;;;;;14.10;2.13;;;2.20;99.90;;;;;;5096255;28;20055;-70
2024/01/15 06:41:43;;;;;;;18.27;3.23;;;2.20;99.90;;;;;;5096521;28;20127;-70
2024/01/15 06:44:12;;;;;;;11.60;2.08;;;2.20;99.90;;;;;;5096377;28;20063;-70
2024/01/15 06:46:45;;;;;;;11.93;1.90;;;2.20;99.90;;;;;;5096463;28;20052;-70
2024/01/15 06:49:11;;;;;;;11.50;1.92;;;2.20;99.90;;;;;;5096268;28;20052;-70
2024/01/15 06:51:37;;;;;;;10.50;1.98;;;2.10;99.90;;;;;;5096385;28;20044;-70
2024/01/15 06:54:03;;;;;;;14.05;1.95;;;2.00;99.90;;;;;;5095680;28;20095;-70
2024/01/15 06:56:29;;;;;;;12.93;2.17;;;2.00;99.90;;;;;;5096223;28;20094;-70
2024/01/15 06:58:55;;;;;;;11.27;2.05;;;2.00;99.90;;;;;;5095079;28;20306;-70
2024/01/15 07:01:21;;;;;;;11.80;1.83;;;2.00;99.90;;;;;;5096274;28;20393;-70
2024/01/15 07:03:47;;;;;;;15.60;2.88;;;2.00;99.90;;;;;;5096126;28;20044;-70
2024/01/15 07:06:13;;;;;;;16.37;2.03;;;1.90;99.90;;;;;;5095927;28;20504;-70
2024/01/15 07:08:39;;;;;;;12.23;2.33;;;1.90;99.90;;;;;;5096016;28;20098;-69
2024/01/15 07:11:06;;;;;;;18.17;1.75;;;1.90;99.90;;;;;;5094709;28;20102;-70
2024/01/15 07:13:32;;;;;;;15.88;2.13;;;1.90;99.90;;;;;;5095925;28;20044;-70
2024/01/15 07:15:58;;;;;;;11.93;1.75;;;1.90;99.90;;;;;;5096068;28;20039;-70
2024/01/15 07:18:24;;;;;;;15.17;1.67;;;2.00;99.90;;;;;;5095745;28;20569;-70
2024/01/15 07:20:50;;;;;;;15.73;2.20;;;1.90;99.90;;;;;;5094611;28;20063;-69
2024/01/15 07:23:16;;;;;;;14.30;2.13;;;1.90;99.90;;;;;;5093484;28;20481;-74
2024/01/15 07:25:42;;;;;;;14.67;3.20;;;1.90;99.90;;;;;;5095733;28;20090;-73
2024/01/15 07:28:08;;;;;;;19.27;2.75;;;1.90;99.90;;;;;;5095426;28;20289;-73
2024/01/15 07:30:33;;;;;;;13.77;2.63;;;1.90;99.90;;;;;;5095578;28;20489;-74
2024/01/15 07:32:59;;;;;;;15.93;2.77;;;1.90;99.90;;;;;;5095594;28;20048;-79
2024/01/15 07:35:25;;;;;;;17.70;2.37;;;1.90;99.90;;;;;;5095336;28;20131;-75
2024/01/15 07:37:50;;;;;;;16.53;2.63;;;1.90;99.90;;;;;;5094267;28;20129;-76
2024/01/15 07:40:16;;;;;;;18.07;2.57;;;1.90;99.90;;;;;;5095103;28;20044;-80
2024/01/15 07:42:44;;;;;;;22.20;3.43;;;2.00;99.90;;;;;;5095388;28;20390;-73
2024/01/15 07:45:11;;;;;;;14.73;2.30;;;2.00;99.90;;;;;;5095078;28;20578;-78
2024/01/15 07:47:37;;;;;;;15.98;2.67;;;2.00;99.90;;;;;;5095478;28;20054;-78
2024/01/15 07:50:04;;;;;;;17.40;3.47;;;2.00;99.90;;;;;;5095219;28;20122;-74
2024/01/15 07:52:30;;;;;;;14.75;2.47;;;2.00;99.90;;;;;;5094218;28;20105;-77
2024/01/15 07:54:56;;;;;;;17.55;2.58;;;2.00;99.90;;;;;;5095114;28;20048;-78
2024/01/15 07:57:22;;;;;;;14.50;2.10;;;2.00;99.90;;;;;;5094953;28;20043;-81
2024/01/15 07:59:48;;;;;;;18.58;2.58;;;2.10;99.90;;;;;;5095037;28;20079;-76
2024/01/15 08:02:14;;;;;;;13.43;2.03;;;2.10;99.90;;;;;;5094774;28;20086;-78
2024/01/15 08:04:40;;;;;;;16.53;2.67;;;2.10;99.90;;;;;;5094955;28;20040;-76
2024/01/15 08:07:07;;;;;;;18.33;2.33;;;2.10;99.90;;;;;;5093504;28;20321;-75
2024/01/15 08:09:34;;;;;;;13.70;2.10;;;2.20;99.90;;;;;;5094845;28;20482;-75
2024/01/15 08:12:00;;;;;;;22.13;3.22;;;2.10;99.90;;;;;;5094826;28;20047;-71
2024/01/15 08:14:25;;;;;;;19.92;2.40;;;2.10;99.90;;;;;;5094562;28;20059;-78
2024/01/15 08:16:51;;;;;;;21.70;2.90;;;2.10;99.90;;;;;;5094673;28;20059;-73
2024/01/15 08:19:17;;;;;;;11.27;2.23;;;2.10;99.90;;;;;;5094309;28;20043;-81
2024/01/15 08:21:42;;;;;;;9.60;1.70;;;2.00;99.90;;;;;;5094658;28;20390;-79
2024/01/15 08:24:08;;;;;;;12.30;1.90;;;2.10;99.90;;;;;;5094490;28;20485;-85
2024/01/15 08:26:34;;;;;;;9.73;1.37;;;2.10;99.90;;;;;;5093457;28;20389;-82
2024/01/15 08:29:00;;;;;;;9.33;1.87;;;2.10;99.90;;;;;;5094151;28;20047;-78
2024/01/15 08:31:26;;;;;;;9.80;1.53;;;2.10;99.90;;;;;;5093778;28;20496;-78
2024/01/15 08:33:51;;;;;;;8.57;1.37;;;2.10;99.90;;;;;;5093251;28;20048;-77
2024/01/15 08:36:18;;;;;;;8.53;1.60;;;2.20;99.90;;;;;;5093017;28;20076;-78
2024/01/15 08:38:44;;;;;;;12.85;3.00;;;2.20;99.90;;;;;;5094029;28;20397;-78
2024/01/15 08:41:10;;;;;;;10.07;1.65;;;2.30;99.90;;;;;;5094128;28;20383;-77
2024/01/15 08:43:36;;;;;;;9.37;1.57;;;2.30;99.90;;;;;;5093309;28;20089;-78
2024/01/15 08:46:02;;;;;;;10.97;2.13;;;2.50;99.90;;;;;;5094160;28;20051;-78
2024/01/15 08:48:28;;;;;;;11.43;1.83;;;2.50;99.90;;;;;;5093909;28;20036;-78
2024/01/15 08:50:54;;;;;;;6.33;1.40;;;2.40;99.90;;;;;;5094283;28;20044;-78
2024/01/15 08:53:21;;;;;;;11.27;1.65;;;2.40;99.90;;;;;;5093767;28;20060;-78
2024/01/15 08:55:47;;;;;;;10.20;1.92;;;2.40;99.90;;;;;;5093962;28;20047;-78
2024/01/15 08:58:13;;;;;;;11.63;1.77;;;2.40;99.90;;;;;;5093615;28;20059;-78
2024/01/15 09:00:39;;;;;;;7.93;1.47;;;2.40;99.90;;;;;;5093924;28;20044;-79
2024/01/15 09:03:05;;;;;;;15.50;2.20;;;2.40;99.90;;;;;;5093880;28;20052;-79
2024/01/15 09:05:31;;;;;;;11.65;2.00;;;2.40;99.90;;;;;;5093609;28;20124;-78
2024/01/15 09:07:57;;;;;;;13.93;1.73;;;2.40;99.90;;;;;;5094037;28;20486;-78
2024/01/15 09:10:24;;;;;;;15.55;1.85;;;2.40;99.90;;;;;;5093239;28;20524;-78
2024/01/15 09:12:49;;;;;;;14.25;2.22;;;2.40;99.90;;;;;;5093702;28;20052;-78
2024/01/15 09:15:15;;;;;;;9.90;2.00;;;2.40;99.90;;;;;;5093497;28;20048;-77
2024/01/15 09:17:41;;;;;;;15.50;2.60;;;2.50;99.90;;;;;;5093710;28;20506;-78
2024/01/15 09:20:08;;;;;;;14.77;2.30;;;2.50;99.90;;;;;;5093596;28;20482;-78
2024/01/15 09:22:33;;;;;;;10.65;1.88;;;2.60;99.90;;;;;;5093357;28;20059;-77
2024/01/15 09:24:59;;;;;;;15.10;2.40;;;2.60;99.90;;;;;;5093564;28;20044;-77
2024/01/15 09:27:28;;;;;;;11.93;2.17;;;2.60;99.90;;;;;;5093298;28;20131;-77
2024/01/15 09:29:54;;;;;;;14.13;1.88;;;2.70;99.90;;;;;;5093457;28;20047;-78
2024/01/15 09:32:20;;;;;;;17.20;2.17;;;2.70;99.90;;;;;;5093218;28;20125;-78
2024/01/15 09:34:48;;;;;;;16.17;2.00;;;2.70;99.90;;;;;;5093090;28;20314;-78
2024/01/15 09:37:14;;;;;;;16.83;2.20;;;2.70;99.90;;;;;;5093400;28;20048;-78
2024/01/15 09:39:40;;;;;;;10.57;1.77;;;2.70;99.90;;;;;;5091854;28;20094;-78
2024/01/15 09:42:07;;;;;;;11.07;1.85;;;2.60;99.90;;;;;;5093452;28;20101;-78
2024/01/15 09:44:33;;;;;;;17.23;2.88;;;2.60;99.90;;;;;;5094228;28;20052;-78
2024/01/15 09:47:00;;;;;;;9.57;1.98;;;2.60;99.90;;;;;;5100118;28;20396;-78
2024/01/15 09:49:25;;;;;;;24.60;3.30;;;2.70;99.90;;;;;;5099893;28;20044;-78
2024/01/15 09:51:51;;;;;;;13.27;2.43;;;2.80;99.90;;;;;;5099723;28;20121;-78
2024/01/15 09:54:17;;;;;;;12.40;1.60;;;2.80;99.90;;;;;;5099507;28;20507;-78
2024/01/15 09:56:47;;;;;;;11.33;1.60;;;2.90;99.90;;;;;;5099057;28;20105;-78
2024/01/15 09:59:23;;;;;;;9.23;1.75;;;2.90;99.90;;;;;;5099927;28;20143;-78
2024/01/15 10:01:50;;;;;;;8.95;1.25;;;3.00;99.90;;;;;;5100045;28;20079;-77
2024/01/15 10:04:16;;;;;;;14.73;1.75;;;3.00;99.90;;;;;;5100119;28;20059;-77
2024/01/15 10:06:47;;;;;;;7.37;1.30;;;3.10;99.90;;;;;;5099735;28;20390;-77
2024/01/15 10:09:16;;;;;;;11.27;1.58;;;3.10;99.90;;;;;;5099987;28;20135;-77
2024/01/15 10:11:43;;;;;;;9.07;1.98;;;3.10;99.90;;;;;;5099714;28;20115;-76
2024/01/15 10:14:12;;;;;;;8.45;1.55;;;3.10;99.90;;;;;;5099838;28;20047;-76
2024/01/15 10:16:39;;;;;;;9.20;1.48;;;3.10;99.90;;;;;;5098613;28;20051;-76
2024/01/15 10:19:05;;;;;;;8.73;1.30;;;3.20;99.90;;;;;;5099700;28;20114;-76
2024/01/15 10:21:37;;;;;;;8.63;1.37;;;3.20;99.90;;;;;;5099912;28;20056;-76
2024/01/15 10:24:03;;;;;;;7.15;1.27;;;3.30;99.90;;;;;;5098543;28;20043;-76
2024/01/15 10:26:30;;;;;;;8.48;1.10;;;3.30;99.90;;;;;;5099468;28;20051;-76
2024/01/15 10:28:58;;;;;;;10.98;1.85;;;3.30;99.90;;;;;;5099665;28;20040;-77
2024/01/15 10:31:23;;;;;;;8.70;1.30;;;3.40;99.90;;;;;;5099476;28;20157;-77
2024/01/15 10:33:49;;;;;;;8.27;1.23;;;3.30;99.90;;;;;;5099609;28;20127;-77
2024/01/15 10:36:17;;;;;;;6.57;1.10;;;3.30;99.90;;;;;;5099692;28;20084;-77
2024/01/15 10:38:46;;;;;;;7.63;1.13;;;3.20;99.90;;;;;;5099358;28;20582;-77
2024/01/15 10:41:12;;;;;;;5.35;1.25;;;3.20;99.90;;;;;;5098448;28;20130;-77
2024/01/15 10:43:38;;;;;;;11.05;1.73;;;3.20;99.90;;;;;;5099419;28;20048;-77
2024/01/15 10:46:04;;;;;;;7.43;1.27;;;3.10;99.90;;;;;;5099602;28;20047;-76
2024/01/15 10:48:31;;;;;;;6.75;1.10;;;3.10;99.90;;;;;;5099046;28;20667;-76
2024/01/15 10:51:00;;;;;;;12.13;1.80;;;3.10;99.90;;;;;;5098286;28;20127;-76
2024/01/15 10:53:27;;;;;;;8.65;1.40;;;3.00;99.90;;;;;;5099079;28;20101;-75
2024/01/15 10:55:54;;;;;;;9.05;1.77;;;3.00;99.90;;;;;;5098376;28;20517;-76
2024/01/15 10:58:23;;;;;;;10.75;1.85;;;3.00;99.90;;;;;;5095121;28;20052;-76
2024/01/15 11:00:49;;;;;;;15.38;2.08;;;3.00;99.90;;;;;;5095989;28;20052;-75
2024/01/15 11:03:16;;;;;;;9.45;1.23;;;3.10;99.90;;;;;;5094986;28;20059;-76
2024/01/15 11:05:43;;;;;;;9.90;1.60;;;3.00;99.90;;;;;;5095961;28;20044;-75
2024/01/15 11:08:09;;;;;;;8.50;1.65;;;3.00;99.90;;;;;;5096081;28;20044;-75
2024/01/15 11:10:40;;;;;;;8.80;1.50;;;3.00;99.90;;;;;;5094622;28;20050;-75
2024/01/15 11:13:15;;;;;;;12.60;2.00;;;3.00;99.90;;;;;;5094773;28;20401;-75
2024/01/15 11:16:02;;;;;;;10.43;2.33;;;3.00;99.90;;;;;;5095512;28;20490;-75
2024/01/15 11:18:36;;;;;;;15.15;2.20;;;3.10;99.90;;;;;;5095568;28;20052;-75
2024/01/15 11:21:16;;;;;;;9.63;1.98;;;3.10;99.90;;;;;;5095754;28;20486;-76
2024/01/15 11:23:49;;;;;;;8.05;1.40;;;3.10;99.90;;;;;;5095541;28;20398;-76
2024/01/15 11:26:41;;;;;;;4.20;1.10;;;3.20;99.90;;;;;;5095743;28;20048;-76
2024/01/15 11:29:10;;;;;;;6.72;1.48;;;3.30;99.90;;;;;;5096310;28;20047;-76
2024/01/15 11:31:38;;;;;;;10.63;1.90;;;3.30;99.90;;;;;;5095441;28;20043;-76
2024/01/15 11:34:05;;;;;;;9.27;1.92;;;3.40;99.90;;;;;;5094519;28;20139;-77
2024/01/15 11:36:49;;;;;;;10.45;1.50;;;3.30;99.90;;;;;;5095326;28;20047;-76
2024/01/15 11:39:32;;;;;;;10.18;1.73;;;3.20;99.90;;;;;;5095639;28;20048;-77
2024/01/15 11:42:03;;;;;;;8.38;1.20;;;3.10;99.90;;;;;;5095452;28;20126;-76
2024/01/15 11:44:29;;;;;;;8.95;1.52;;;3.00;99.90;;;;;;5095422;28;20493;-77
2024/01/15 11:47:03;;;;;;;6.55;1.40;;;2.90;99.90;;;;;;5095135;28;20051;-77
2024/01/15 11:49:34;;;;;;;8.70;1.50;;;2.80;99.90;;;;;;5094325;28;20040;-77
2024/01/15 11:52:02;;;;;;;8.60;1.38;;;2.70;99.90;;;;;;5095452;28;20405;-77
2024/01/15 11:54:33;;;;;;;10.40;2.13;;;2.70;99.90;;;;;;5094936;28;20048;-77
2024/01/15 11:57:03;;;;;;;7.65;1.35;;;2.60;99.90;;;;;;5095311;28;20066;-77
2024/01/15 11:59:29;;;;;;;11.38;1.50;;;2.70;99.90;;;;;;5095137;28;20105;-77
2024/01/15 12:01:54;;;;;;;8.90;1.60;;;2.70;99.90;;;;;;5094790;28;20048;-77
2024/01/15 12:04:21;;;;;;;12.77;1.93;;;2.70;99.90;;;;;;5095041;28;20040;-77
2024/01/15 12:06:46;;;;;;;7.38;1.60;;;2.70;99.90;;;;;;5094681;28;20109;-77
2024/01/15 12:09:12;;;;;;;10.23;1.73;;;2.70;99.90;;;;;;5094586;28;20039;-77
2024/01/15 12:11:42;;;;;;;13.00;1.90;;;2.70;99.90;;;;;;5094626;28;20088;-76
2024/01/15 12:14:08;;;;;;;15.80;2.10;;;2.80;99.90;;;;;;5094863;28;20051;-77
2024/01/15 12:16:34;;;;;;;17.23;2.33;;;2.90;99.90;;;;;;5094744;28;20078;-77
2024/01/15 12:19:00;;;;;;;11.63;2.35;;;2.90;99.90;;;;;;5094341;28;20044;-77
2024/01/15 12:21:26;;;;;;;12.93;1.85;;;2.90;99.90;;;;;;5094626;28;20098;-77
2024/01/15 12:23:54;;;;;;;12.70;1.85;;;3.00;99.90;;;;;;5094451;28;20048;-77
2024/01/15 12:26:20;;;;;;;13.20;1.67;;;3.00;99.90;;;;;;5093353;28;20117;-77
2024/01/15 12:28:45;;;;;;;13.83;1.53;;;3.00;99.90;;;;;;5094399;28;20091;-76
2024/01/15 12:31:11;;;;;;;11.50;1.80;;;3.00;99.90;;;;;;5094606;28;20051;-77
2024/01/15 12:33:37;;;;;;;12.77;1.80;;;3.20;99.90;;;;;;5094183;28;20533;-75
2024/01/15 12:36:04;;;;;;;16.40;1.97;;;3.30;99.90;;;;;;5094549;28;20048;-77
2024/01/15 12:38:30;;;;;;;9.10;1.60;;;3.40;99.90;;;;;;5094347;28;20055;-77
2024/01/15 12:40:55;;;;;;;10.63;2.10;;;3.50;99.90;;;;;;5094133;28;20044;-77
2024/01/15 12:43:21;;;;;;;11.57;2.40;;;3.50;99.90;;;;;;5094310;28;20524;-77